sensor_id;sensor_type;location;lat;lon;timestamp;temperature;humidity
27544;DHT22;17996;51.056;3.656;2022-09-17T00:00:40;12.00;99.90
27544;DHT22;17996;51.056;3.656;2022-09-17T00:03:07;11.90;99.90
27544;DHT22;17996;51.056;3.656;2022-09-17T00:05:35;11.90;99.90
27544;DHT22;17996;51.056;3.656;2022-09-17T00:08:06;11.90;99.90
27544;DHT22;17996;51.056;3.656;2022-09-17T00:10:36;11.80;99.90
27544;DHT22;17996;51.056;3.656;2022-09-17T00:13:04;11.80;99.90
27544;DHT22;17996;51.056;3.656;2022-09-17T00:15:30;11.80;99.90
27544;DHT22;17996;51.056;3.656;2022-09-17T00:17:56;11.80;99.90
27544;DHT22;17996;51.056;3.656;2022-09-17T00:20:26;11.80;99.90
27544;DHT22;17996;51.056;3.656;2022-09-17T00:22:52;12.00;99.90
27544;DHT22;17996;51.056;3.656;2022-09-17T00:25:19;11.80;99.90
27544;DHT22;17996;51.056;3.656;2022-09-17T00:27:45;11.80;99.90
27544;DHT22;17996;51.056;3.656;2022-09-17T00:30:12;11.80;99.90
27544;DHT22;17996;51.056;3.656;2022-09-17T00:32:38;11.90;99.90
27544;DHT22;17996;51.056;3.656;2022-09-17T00:35:04;11.90;99.90
27544;DHT22;17996;51.056;3.656;2022-09-17T00:37:30;11.90;99.90
27544;DHT22;17996;51.056;3.656;2022-09-17T00:39:56;12.00;99.90
27544;DHT22;17996;51.056;3.656;2022-09-17T00:42:22;12.10;99.90
27544;DHT22;17996;51.056;3.656;2022-09-17T00:44:49;12.00;99.90
27544;DHT22;17996;51.056;3.656;2022-09-17T00:47:23;11.90;99.90
27544;DHT22;17996;51.056;3.656;2022-09-17T00:49:54;11.90;99.90
27544;DHT22;17996;51.056;3.656;2022-09-17T00:52:25;11.90;99.90
27544;DHT22;17996;51.056;3.656;2022-09-17T00:54:56;11.90;99.90
27544;DHT22;17996;51.056;3.656;2022-09-17T00:57:24;12.00;99.90
27544;DHT22;17996;51.056;3.656;2022-09-17T00:59:50;12.00;99.90
27544;DHT22;17996;51.056;3.656;2022-09-17T01:02:17;12.10;99.90
27544;DHT22;17996;51.056;3.656;2022-09-17T01:04:43;12.20;99.90
27544;DHT22;17996;51.056;3.656;2022-09-17T01:09:58;12.00;99.90
27544;DHT22;17996;51.056;3.656;2022-09-17T01:17:53;12.00;99.90
27544;DHT22;17996;51.056;3.656;2022-09-17T01:31:56;12.40;99.90
27544;DHT22;17996;51.056;3.656;2022-09-17T01:35:03;12.50;99.90
27544;DHT22;17996;51.056;3.656;2022-09-17T01:37:49;12.50;99.90
27544;DHT22;17996;51.056;3.656;2022-09-17T01:40:25;12.40;99.90
27544;DHT22;17996;51.056;3.656;2022-09-17T01:43:12;12.50;99.90
27544;DHT22;17996;51.056;3.656;2022-09-17T01:45:41;12.40;99.90
27544;DHT22;17996;51.056;3.656;2022-09-17T01:48:12;12.40;99.90
27544;DHT22;17996;51.056;3.656;2022-09-17T01:51:05;12.40;99.90
27544;DHT22;17996;51.056;3.656;2022-09-17T01:53:43;12.50;99.90
27544;DHT22;17996;51.056;3.656;2022-09-17T01:56:13;12.50;99.90
27544;DHT22;17996;51.056;3.656;2022-09-17T01:58:47;12.40;99.90
27544;DHT22;17996;51.056;3.656;2022-09-17T02:01:17;12.50;99.90
27544;DHT22;17996;51.056;3.656;2022-09-17T02:03:58;12.40;99.90
27544;DHT22;17996;51.056;3.656;2022-09-17T02:06:28;12.40;99.90
27544;DHT22;17996;51.056;3.656;2022-09-17T02:09:26;12.40;99.90
27544;DHT22;17996;51.056;3.656;2022-09-17T02:11:57;12.40;99.90
27544;DHT22;17996;51.056;3.656;2022-09-17T02:14:28;12.40;99.90
27544;DHT22;17996;51.056;3.656;2022-09-17T02:17:10;12.50;99.90
27544;DHT22;17996;51.056;3.656;2022-09-17T02:19:38;12.50;99.90
27544;DHT22;17996;51.056;3.656;2022-09-17T02:27:23;12.40;99.90
27544;DHT22;17996;51.056;3.656;2022-09-17T02:29:51;12.40;99.90
27544;DHT22;17996;51.056;3.656;2022-09-17T02:32:16;12.30;99.90
27544;DHT22;17996;51.056;3.656;2022-09-17T02:34:42;12.40;99.90
27544;DHT22;17996;51.056;3.656;2022-09-17T02:37:08;12.30;99.90
27544;DHT22;17996;51.056;3.656;2022-09-17T02:39:34;12.30;99.90
27544;DHT22;17996;51.056;3.656;2022-09-17T02:52:45;12.30;99.90
27544;DHT22;17996;51.056;3.656;2022-09-17T02:55:17;12.30;99.90
27544;DHT22;17996;51.056;3.656;2022-09-17T03:00:28;12.30;99.90
27544;DHT22;17996;51.056;3.656;2022-09-17T03:05:56;12.30;99.90
27544;DHT22;17996;51.056;3.656;2022-09-17T03:08:33;12.20;99.90
27544;DHT22;17996;51.056;3.656;2022-09-17T03:11:01;12.10;99.90
27544;DHT22;17996;51.056;3.656;2022-09-17T03:13:29;12.20;99.90
27544;DHT22;17996;51.056;3.656;2022-09-17T03:15:55;11.90;99.90
27544;DHT22;17996;51.056;3.656;2022-09-17T03:18:21;11.80;99.90
27544;DHT22;17996;51.056;3.656;2022-09-17T03:20:47;11.80;99.90
27544;DHT22;17996;51.056;3.656;2022-09-17T03:23:13;11.90;99.90
27544;DHT22;17996;51.056;3.656;2022-09-17T03:25:38;11.90;99.90
27544;DHT22;17996;51.056;3.656;2022-09-17T03:28:04;12.00;99.90
27544;DHT22;17996;51.056;3.656;2022-09-17T03:30:30;12.00;99.90
27544;DHT22;17996;51.056;3.656;2022-09-17T03:32:55;12.10;99.90
27544;DHT22;17996;51.056;3.656;2022-09-17T03:35:21;12.20;99.90
27544;DHT22;17996;51.056;3.656;2022-09-17T03:37:47;12.20;99.90
27544;DHT22;17996;51.056;3.656;2022-09-17T03:40:12;12.20;99.90
27544;DHT22;17996;51.056;3.656;2022-09-17T03:42:38;12.20;99.90
27544;DHT22;17996;51.056;3.656;2022-09-17T03:45:04;12.20;99.90
27544;DHT22;17996;51.056;3.656;2022-09-17T03:47:30;12.20;99.90
27544;DHT22;17996;51.056;3.656;2022-09-17T03:49:56;12.20;99.90
27544;DHT22;17996;51.056;3.656;2022-09-17T03:52:22;12.20;99.90
27544;DHT22;17996;51.056;3.656;2022-09-17T03:54:47;12.10;99.90
27544;DHT22;17996;51.056;3.656;2022-09-17T03:57:13;12.00;99.90
27544;DHT22;17996;51.056;3.656;2022-09-17T03:59:39;12.10;99.90
27544;DHT22;17996;51.056;3.656;2022-09-17T04:02:04;12.30;99.90
27544;DHT22;17996;51.056;3.656;2022-09-17T04:04:31;12.20;99.90
27544;DHT22;17996;51.056;3.656;2022-09-17T04:06:56;12.40;99.90
27544;DHT22;17996;51.056;3.656;2022-09-17T04:09:22;12.20;99.90
27544;DHT22;17996;51.056;3.656;2022-09-17T04:11:48;12.20;99.90
27544;DHT22;17996;51.056;3.656;2022-09-17T04:14:14;12.20;99.90
27544;DHT22;17996;51.056;3.656;2022-09-17T04:16:39;12.20;99.90
27544;DHT22;17996;51.056;3.656;2022-09-17T04:19:05;12.40;99.90
27544;DHT22;17996;51.056;3.656;2022-09-17T04:21:31;12.20;99.90
27544;DHT22;17996;51.056;3.656;2022-09-17T04:23:56;12.10;99.90
27544;DHT22;17996;51.056;3.656;2022-09-17T04:26:22;12.10;99.90
27544;DHT22;17996;51.056;3.656;2022-09-17T04:28:48;12.20;99.90
27544;DHT22;17996;51.056;3.656;2022-09-17T04:31:14;12.10;99.90
27544;DHT22;17996;51.056;3.656;2022-09-17T04:33:39;12.30;99.90
27544;DHT22;17996;51.056;3.656;2022-09-17T04:36:05;12.20;99.90
27544;DHT22;17996;51.056;3.656;2022-09-17T04:38:31;12.20;99.90
27544;DHT22;17996;51.056;3.656;2022-09-17T04:40:58;12.20;99.90
27544;DHT22;17996;51.056;3.656;2022-09-17T04:43:24;12.30;99.90
27544;DHT22;17996;51.056;3.656;2022-09-17T04:45:50;12.20;99.90
27544;DHT22;17996;51.056;3.656;2022-09-17T04:48:16;12.20;99.90
27544;DHT22;17996;51.056;3.656;2022-09-17T04:50:42;12.10;99.90
27544;DHT22;17996;51.056;3.656;2022-09-17T04:53:08;12.10;99.90
27544;DHT22;17996;51.056;3.656;2022-09-17T04:55:34;12.10;99.90
27544;DHT22;17996;51.056;3.656;2022-09-17T04:57:59;12.10;99.90
27544;DHT22;17996;51.056;3.656;2022-09-17T05:00:25;12.20;99.90
27544;DHT22;17996;51.056;3.656;2022-09-17T05:02:53;12.10;99.90
27544;DHT22;17996;51.056;3.656;2022-09-17T05:05:19;12.10;99.90
27544;DHT22;17996;51.056;3.656;2022-09-17T05:07:45;12.10;99.90
27544;DHT22;17996;51.056;3.656;2022-09-17T05:10:12;12.10;99.90
27544;DHT22;17996;51.056;3.656;2022-09-17T05:12:38;12.10;99.90
27544;DHT22;17996;51.056;3.656;2022-09-17T05:15:04;12.10;99.90
27544;DHT22;17996;51.056;3.656;2022-09-17T05:17:31;12.10;99.90
27544;DHT22;17996;51.056;3.656;2022-09-17T05:19:56;12.10;99.90
27544;DHT22;17996;51.056;3.656;2022-09-17T05:22:22;12.10;99.90
27544;DHT22;17996;51.056;3.656;2022-09-17T05:24:47;12.00;99.90
27544;DHT22;17996;51.056;3.656;2022-09-17T05:27:13;11.90;99.90
27544;DHT22;17996;51.056;3.656;2022-09-17T05:29:39;11.90;99.90
27544;DHT22;17996;51.056;3.656;2022-09-17T05:32:06;11.90;99.90
27544;DHT22;17996;51.056;3.656;2022-09-17T05:34:32;11.80;99.90
27544;DHT22;17996;51.056;3.656;2022-09-17T05:36:58;11.80;99.90
27544;DHT22;17996;51.056;3.656;2022-09-17T05:39:23;11.70;99.90
27544;DHT22;17996;51.056;3.656;2022-09-17T05:41:53;11.70;99.90
27544;DHT22;17996;51.056;3.656;2022-09-17T05:44:20;11.60;99.90
27544;DHT22;17996;51.056;3.656;2022-09-17T05:46:46;11.60;99.90
27544;DHT22;17996;51.056;3.656;2022-09-17T05:49:13;11.70;99.90
27544;DHT22;17996;51.056;3.656;2022-09-17T05:51:40;11.50;99.90
27544;DHT22;17996;51.056;3.656;2022-09-17T05:54:06;11.60;99.90
27544;DHT22;17996;51.056;3.656;2022-09-17T05:56:32;11.60;99.90
27544;DHT22;17996;51.056;3.656;2022-09-17T05:58:58;11.80;99.90
27544;DHT22;17996;51.056;3.656;2022-09-17T06:01:24;11.80;99.90
27544;DHT22;17996;51.056;3.656;2022-09-17T06:03:49;11.80;99.90
27544;DHT22;17996;51.056;3.656;2022-09-17T06:06:15;11.70;99.90
27544;DHT22;17996;51.056;3.656;2022-09-17T06:08:42;11.80;99.90
27544;DHT22;17996;51.056;3.656;2022-09-17T06:11:08;11.70;99.90
27544;DHT22;17996;51.056;3.656;2022-09-17T06:13:34;11.70;99.90
27544;DHT22;17996;51.056;3.656;2022-09-17T06:16:01;11.80;99.90
27544;DHT22;17996;51.056;3.656;2022-09-17T06:18:28;11.60;99.90
27544;DHT22;17996;51.056;3.656;2022-09-17T06:21:00;11.60;99.90
27544;DHT22;17996;51.056;3.656;2022-09-17T06:23:26;11.60;99.90
27544;DHT22;17996;51.056;3.656;2022-09-17T06:25:55;11.60;99.90
27544;DHT22;17996;51.056;3.656;2022-09-17T06:28:21;11.60;99.90
27544;DHT22;17996;51.056;3.656;2022-09-17T06:30:47;11.80;99.90
27544;DHT22;17996;51.056;3.656;2022-09-17T06:33:13;11.70;99.90
27544;DHT22;17996;51.056;3.656;2022-09-17T06:35:39;11.90;99.90
27544;DHT22;17996;51.056;3.656;2022-09-17T06:38:05;11.70;99.90
27544;DHT22;17996;51.056;3.656;2022-09-17T06:40:31;11.80;99.90
27544;DHT22;17996;51.056;3.656;2022-09-17T06:42:58;11.80;99.90
27544;DHT22;17996;51.056;3.656;2022-09-17T06:45:25;11.70;99.90
27544;DHT22;17996;51.056;3.656;2022-09-17T06:47:50;11.80;99.90
27544;DHT22;17996;51.056;3.656;2022-09-17T06:50:16;11.80;99.90
27544;DHT22;17996;51.056;3.656;2022-09-17T06:52:52;11.80;99.90
27544;DHT22;17996;51.056;3.656;2022-09-17T06:55:19;11.80;99.90
27544;DHT22;17996;51.056;3.656;2022-09-17T06:57:45;11.70;99.90
27544;DHT22;17996;51.056;3.656;2022-09-17T07:00:12;11.70;99.90
27544;DHT22;17996;51.056;3.656;2022-09-17T07:02:38;11.60;99.90
27544;DHT22;17996;51.056;3.656;2022-09-17T07:05:04;11.70;99.90
27544;DHT22;17996;51.056;3.656;2022-09-17T07:07:30;11.50;99.90
27544;DHT22;17996;51.056;3.656;2022-09-17T07:09:55;11.60;99.90
27544;DHT22;17996;51.056;3.656;2022-09-17T07:12:21;11.50;99.90
27544;DHT22;17996;51.056;3.656;2022-09-17T07:14:47;11.40;99.90
27544;DHT22;17996;51.056;3.656;2022-09-17T07:17:14;11.40;99.90
27544;DHT22;17996;51.056;3.656;2022-09-17T07:19:40;11.40;99.90
27544;DHT22;17996;51.056;3.656;2022-09-17T07:22:06;11.40;99.90
27544;DHT22;17996;51.056;3.656;2022-09-17T07:24:32;11.40;99.90
27544;DHT22;17996;51.056;3.656;2022-09-17T07:26:58;11.40;99.90
27544;DHT22;17996;51.056;3.656;2022-09-17T07:29:24;11.50;99.90
27544;DHT22;17996;51.056;3.656;2022-09-17T07:31:53;11.40;99.90
27544;DHT22;17996;51.056;3.656;2022-09-17T07:34:19;11.40;99.90
27544;DHT22;17996;51.056;3.656;2022-09-17T07:36:44;11.30;99.90
27544;DHT22;17996;51.056;3.656;2022-09-17T07:39:10;11.30;99.90
27544;DHT22;17996;51.056;3.656;2022-09-17T07:41:38;11.50;99.90
27544;DHT22;17996;51.056;3.656;2022-09-17T07:44:04;11.50;99.90
27544;DHT22;17996;51.056;3.656;2022-09-17T07:46:31;11.70;99.90
27544;DHT22;17996;51.056;3.656;2022-09-17T07:48:57;11.90;99.90
27544;DHT22;17996;51.056;3.656;2022-09-17T07:51:24;11.80;99.90
27544;DHT22;17996;51.056;3.656;2022-09-17T07:53:52;12.10;99.90
27544;DHT22;17996;51.056;3.656;2022-09-17T07:56:18;11.90;99.90
27544;DHT22;17996;51.056;3.656;2022-09-17T07:58:44;12.00;99.90
27544;DHT22;17996;51.056;3.656;2022-09-17T08:01:11;12.00;99.90
27544;DHT22;17996;51.056;3.656;2022-09-17T08:03:38;12.10;99.90
27544;DHT22;17996;51.056;3.656;2022-09-17T08:06:10;12.10;99.90
27544;DHT22;17996;51.056;3.656;2022-09-17T08:08:37;12.10;99.90
27544;DHT22;17996;51.056;3.656;2022-09-17T08:11:07;12.10;99.90
27544;DHT22;17996;51.056;3.656;2022-09-17T08:13:34;12.10;99.90
27544;DHT22;17996;51.056;3.656;2022-09-17T08:16:01;12.10;99.90
27544;DHT22;17996;51.056;3.656;2022-09-17T08:18:26;12.10;99.90
27544;DHT22;17996;51.056;3.656;2022-09-17T08:20:56;12.10;99.90
27544;DHT22;17996;51.056;3.656;2022-09-17T08:23:23;12.20;99.90
27544;DHT22;17996;51.056;3.656;2022-09-17T08:25:53;12.20;99.90
27544;DHT22;17996;51.056;3.656;2022-09-17T08:28:19;12.30;99.90
27544;DHT22;17996;51.056;3.656;2022-09-17T08:30:45;12.20;99.90
27544;DHT22;17996;51.056;3.656;2022-09-17T08:33:13;12.20;99.90
27544;DHT22;17996;51.056;3.656;2022-09-17T08:35:38;12.40;99.90
27544;DHT22;17996;51.056;3.656;2022-09-17T08:38:05;12.30;99.90
27544;DHT22;17996;51.056;3.656;2022-09-17T08:40:38;12.40;99.90
27544;DHT22;17996;51.056;3.656;2022-09-17T08:43:12;12.50;99.90
27544;DHT22;17996;51.056;3.656;2022-09-17T08:45:39;12.70;99.90
27544;DHT22;17996;51.056;3.656;2022-09-17T08:48:07;12.60;99.90
27544;DHT22;17996;51.056;3.656;2022-09-17T08:50:36;12.60;99.90
27544;DHT22;17996;51.056;3.656;2022-09-17T08:53:26;12.60;99.90
27544;DHT22;17996;51.056;3.656;2022-09-17T08:56:04;12.70;99.90
27544;DHT22;17996;51.056;3.656;2022-09-17T09:07:10;12.40;99.90
27544;DHT22;17996;51.056;3.656;2022-09-17T09:09:45;12.40;99.90
27544;DHT22;17996;51.056;3.656;2022-09-17T09:12:21;12.30;99.90
27544;DHT22;17996;51.056;3.656;2022-09-17T09:14:52;12.20;99.90
27544;DHT22;17996;51.056;3.656;2022-09-17T09:17:22;12.10;99.90
27544;DHT22;17996;51.056;3.656;2022-09-17T09:19:51;12.00;99.90
27544;DHT22;17996;51.056;3.656;2022-09-17T09:25:26;12.10;99.90
27544;DHT22;17996;51.056;3.656;2022-09-17T09:31:09;12.00;99.90
27544;DHT22;17996;51.056;3.656;2022-09-17T09:33:41;12.10;99.90
27544;DHT22;17996;51.056;3.656;2022-09-17T09:36:14;12.30;99.90
27544;DHT22;17996;51.056;3.656;2022-09-17T09:38:45;12.30;99.90
27544;DHT22;17996;51.056;3.656;2022-09-17T09:41:16;12.40;99.90
27544;DHT22;17996;51.056;3.656;2022-09-17T09:43:47;12.30;99.90
27544;DHT22;17996;51.056;3.656;2022-09-17T09:46:20;12.50;99.90
27544;DHT22;17996;51.056;3.656;2022-09-17T09:49:41;12.60;99.90
27544;DHT22;17996;51.056;3.656;2022-09-17T09:54:26;12.90;99.90
27544;DHT22;17996;51.056;3.656;2022-09-17T09:57:03;12.90;99.90
27544;DHT22;17996;51.056;3.656;2022-09-17T09:59:32;13.00;99.90
27544;DHT22;17996;51.056;3.656;2022-09-17T10:02:01;13.00;99.90
27544;DHT22;17996;51.056;3.656;2022-09-17T10:04:28;13.00;99.90
27544;DHT22;17996;51.056;3.656;2022-09-17T10:07:07;13.10;99.90
27544;DHT22;17996;51.056;3.656;2022-09-17T10:09:35;13.00;99.90
27544;DHT22;17996;51.056;3.656;2022-09-17T10:12:15;12.90;99.90
27544;DHT22;17996;51.056;3.656;2022-09-17T10:14:43;13.00;99.90
27544;DHT22;17996;51.056;3.656;2022-09-17T10:17:23;13.00;99.90
27544;DHT22;17996;51.056;3.656;2022-09-17T10:22:34;13.30;99.90
27544;DHT22;17996;51.056;3.656;2022-09-17T10:25:02;13.40;99.90
27544;DHT22;17996;51.056;3.656;2022-09-17T10:27:29;13.40;99.90
27544;DHT22;17996;51.056;3.656;2022-09-17T10:30:03;13.60;99.90
27544;DHT22;17996;51.056;3.656;2022-09-17T10:32:38;13.60;99.90
27544;DHT22;17996;51.056;3.656;2022-09-17T10:37:47;13.90;99.90
27544;DHT22;17996;51.056;3.656;2022-09-17T10:42:50;14.10;99.90
27544;DHT22;17996;51.056;3.656;2022-09-17T10:45:27;14.00;99.90
27544;DHT22;17996;51.056;3.656;2022-09-17T10:47:54;13.80;99.90
27544;DHT22;17996;51.056;3.656;2022-09-17T10:50:29;13.50;99.90
27544;DHT22;17996;51.056;3.656;2022-09-17T10:53:03;13.30;99.90
27544;DHT22;17996;51.056;3.656;2022-09-17T10:56:30;13.20;99.90
27544;DHT22;17996;51.056;3.656;2022-09-17T10:58:55;13.10;99.90
27544;DHT22;17996;51.056;3.656;2022-09-17T11:01:54;13.00;99.90
27544;DHT22;17996;51.056;3.656;2022-09-17T11:04:41;12.90;99.90
27544;DHT22;17996;51.056;3.656;2022-09-17T11:07:19;12.80;99.90
27544;DHT22;17996;51.056;3.656;2022-09-17T11:26:38;13.50;99.90
27544;DHT22;17996;51.056;3.656;2022-09-17T11:34:25;13.60;99.90
27544;DHT22;17996;51.056;3.656;2022-09-17T11:37:20;13.50;99.90
27544;DHT22;17996;51.056;3.656;2022-09-17T11:39:59;13.40;99.90
27544;DHT22;17996;51.056;3.656;2022-09-17T11:42:41;13.30;99.90
27544;DHT22;17996;51.056;3.656;2022-09-17T11:47:57;13.20;99.90
27544;DHT22;17996;51.056;3.656;2022-09-17T11:50:51;13.20;99.90
27544;DHT22;17996;51.056;3.656;2022-09-17T11:53:24;13.30;99.90
27544;DHT22;17996;51.056;3.656;2022-09-17T11:55:59;13.50;99.90
27544;DHT22;17996;51.056;3.656;2022-09-17T12:01:09;13.40;99.90
27544;DHT22;17996;51.056;3.656;2022-09-17T12:03:49;13.30;99.90
27544;DHT22;17996;51.056;3.656;2022-09-17T12:06:22;13.30;99.90
27544;DHT22;17996;51.056;3.656;2022-09-17T12:08:59;13.30;99.90
27544;DHT22;17996;51.056;3.656;2022-09-17T12:14:16;13.30;99.90
27544;DHT22;17996;51.056;3.656;2022-09-17T12:16:48;13.20;99.90
27544;DHT22;17996;51.056;3.656;2022-09-17T12:19:42;13.20;99.90
27544;DHT22;17996;51.056;3.656;2022-09-17T12:22:22;13.10;99.90
27544;DHT22;17996;51.056;3.656;2022-09-17T12:24:50;13.10;99.90
27544;DHT22;17996;51.056;3.656;2022-09-17T12:30:21;13.20;99.90
27544;DHT22;17996;51.056;3.656;2022-09-17T12:38:46;13.70;99.90
27544;DHT22;17996;51.056;3.656;2022-09-17T12:44:14;13.90;99.90
27544;DHT22;17996;51.056;3.656;2022-09-17T12:49:46;14.10;99.90
27544;DHT22;17996;51.056;3.656;2022-09-17T12:57:59;14.40;99.90
27544;DHT22;17996;51.056;3.656;2022-09-17T13:00:26;14.40;99.90
27544;DHT22;17996;51.056;3.656;2022-09-17T13:05:59;14.40;99.90
27544;DHT22;17996;51.056;3.656;2022-09-17T13:14:36;13.90;99.90
27544;DHT22;17996;51.056;3.656;2022-09-17T13:17:23;13.80;99.90
27544;DHT22;17996;51.056;3.656;2022-09-17T13:22:50;14.00;99.90
27544;DHT22;17996;51.056;3.656;2022-09-17T13:25:18;14.00;99.90
27544;DHT22;17996;51.056;3.656;2022-09-17T13:27:46;14.20;99.90
27544;DHT22;17996;51.056;3.656;2022-09-17T13:30:16;14.30;99.90
27544;DHT22;17996;51.056;3.656;2022-09-17T13:37:57;14.50;99.90
27544;DHT22;17996;51.056;3.656;2022-09-17T13:45:34;14.60;99.90
27544;DHT22;17996;51.056;3.656;2022-09-17T13:48:20;14.60;99.90
27544;DHT22;17996;51.056;3.656;2022-09-17T13:50:49;14.60;99.90
27544;DHT22;17996;51.056;3.656;2022-09-17T13:55:47;14.40;99.90
27544;DHT22;17996;51.056;3.656;2022-09-17T14:01:05;14.60;99.90
27544;DHT22;17996;51.056;3.656;2022-09-17T14:16:44;13.80;99.90
27544;DHT22;17996;51.056;3.656;2022-09-17T14:21:43;13.30;99.90
27544;DHT22;17996;51.056;3.656;2022-09-17T14:24:26;13.00;99.90
27544;DHT22;17996;51.056;3.656;2022-09-17T14:27:13;12.90;99.90
27544;DHT22;17996;51.056;3.656;2022-09-17T14:35:18;12.80;99.90
27544;DHT22;17996;51.056;3.656;2022-09-17T14:37:49;12.80;99.90
27544;DHT22;17996;51.056;3.656;2022-09-17T14:40:18;12.70;99.90
27544;DHT22;17996;51.056;3.656;2022-09-17T14:42:45;12.80;99.90
27544;DHT22;17996;51.056;3.656;2022-09-17T14:45:20;12.80;99.90
27544;DHT22;17996;51.056;3.656;2022-09-17T14:47:47;13.00;99.90
27544;DHT22;17996;51.056;3.656;2022-09-17T14:52:49;13.10;99.90
27544;DHT22;17996;51.056;3.656;2022-09-17T14:55:23;13.20;99.90
27544;DHT22;17996;51.056;3.656;2022-09-17T14:57:53;13.30;99.90
27544;DHT22;17996;51.056;3.656;2022-09-17T15:00:25;13.40;99.90
27544;DHT22;17996;51.056;3.656;2022-09-17T15:02:54;13.40;99.90
27544;DHT22;17996;51.056;3.656;2022-09-17T15:05:32;13.60;99.90
27544;DHT22;17996;51.056;3.656;2022-09-17T15:10:48;13.60;99.90
27544;DHT22;17996;51.056;3.656;2022-09-17T15:13:40;13.80;99.90
27544;DHT22;17996;51.056;3.656;2022-09-17T15:16:22;14.00;99.90
27544;DHT22;17996;51.056;3.656;2022-09-17T15:19:00;13.90;99.90
27544;DHT22;17996;51.056;3.656;2022-09-17T15:21:38;13.80;99.90
27544;DHT22;17996;51.056;3.656;2022-09-17T15:26:52;13.60;99.90
27544;DHT22;17996;51.056;3.656;2022-09-17T15:29:21;13.50;99.90
27544;DHT22;17996;51.056;3.656;2022-09-17T15:31:47;13.30;99.90
27544;DHT22;17996;51.056;3.656;2022-09-17T15:34:13;13.00;99.90
27544;DHT22;17996;51.056;3.656;2022-09-17T15:36:39;13.00;99.90
27544;DHT22;17996;51.056;3.656;2022-09-17T15:39:27;12.80;99.90
27544;DHT22;17996;51.056;3.656;2022-09-17T15:41:57;12.70;99.90
27544;DHT22;17996;51.056;3.656;2022-09-17T15:44:23;12.70;99.90
27544;DHT22;17996;51.056;3.656;2022-09-17T15:46:49;12.60;99.90
27544;DHT22;17996;51.056;3.656;2022-09-17T15:49:29;12.50;99.90
27544;DHT22;17996;51.056;3.656;2022-09-17T15:51:55;12.60;99.90
27544;DHT22;17996;51.056;3.656;2022-09-17T15:54:40;12.60;99.90
27544;DHT22;17996;51.056;3.656;2022-09-17T15:57:12;12.60;99.90
27544;DHT22;17996;51.056;3.656;2022-09-17T15:59:39;12.70;99.90
27544;DHT22;17996;51.056;3.656;2022-09-17T16:02:24;12.80;99.90
27544;DHT22;17996;51.056;3.656;2022-09-17T16:07:33;12.90;99.90
27544;DHT22;17996;51.056;3.656;2022-09-17T16:09:59;12.90;99.90
27544;DHT22;17996;51.056;3.656;2022-09-17T16:12:26;12.90;99.90
27544;DHT22;17996;51.056;3.656;2022-09-17T16:14:57;13.00;99.90
27544;DHT22;17996;51.056;3.656;2022-09-17T16:20:20;13.20;99.90
27544;DHT22;17996;51.056;3.656;2022-09-17T16:22:48;13.40;99.90
27544;DHT22;17996;51.056;3.656;2022-09-17T16:25:24;13.40;99.90
27544;DHT22;17996;51.056;3.656;2022-09-17T16:27:55;13.40;99.90
27544;DHT22;17996;51.056;3.656;2022-09-17T16:30:22;13.60;99.90
27544;DHT22;17996;51.056;3.656;2022-09-17T16:32:49;13.50;99.90
27544;DHT22;17996;51.056;3.656;2022-09-17T16:35:19;13.70;99.90
27544;DHT22;17996;51.056;3.656;2022-09-17T16:37:49;13.70;99.90
27544;DHT22;17996;51.056;3.656;2022-09-17T16:40:15;13.80;99.90
27544;DHT22;17996;51.056;3.656;2022-09-17T16:42:41;13.80;99.90
27544;DHT22;17996;51.056;3.656;2022-09-17T16:45:07;13.90;99.90
27544;DHT22;17996;51.056;3.656;2022-09-17T16:47:35;13.60;99.90
27544;DHT22;17996;51.056;3.656;2022-09-17T16:50:03;13.40;99.90
27544;DHT22;17996;51.056;3.656;2022-09-17T16:52:29;13.20;99.90
27544;DHT22;17996;51.056;3.656;2022-09-17T16:54:55;12.90;99.90
27544;DHT22;17996;51.056;3.656;2022-09-17T16:57:21;12.80;99.90
27544;DHT22;17996;51.056;3.656;2022-09-17T16:59:47;12.60;99.90
27544;DHT22;17996;51.056;3.656;2022-09-17T17:02:12;12.50;99.90
27544;DHT22;17996;51.056;3.656;2022-09-17T17:04:38;12.50;99.90
27544;DHT22;17996;51.056;3.656;2022-09-17T17:07:04;12.40;99.90
27544;DHT22;17996;51.056;3.656;2022-09-17T17:09:29;12.50;99.90
27544;DHT22;17996;51.056;3.656;2022-09-17T17:11:55;12.40;99.90
27544;DHT22;17996;51.056;3.656;2022-09-17T17:14:21;12.30;99.90
27544;DHT22;17996;51.056;3.656;2022-09-17T17:16:46;12.30;99.90
27544;DHT22;17996;51.056;3.656;2022-09-17T17:19:12;12.40;99.90
27544;DHT22;17996;51.056;3.656;2022-09-17T17:21:38;12.30;99.90
27544;DHT22;17996;51.056;3.656;2022-09-17T17:24:04;12.40;99.90
27544;DHT22;17996;51.056;3.656;2022-09-17T17:26:32;12.40;99.90
27544;DHT22;17996;51.056;3.656;2022-09-17T17:28:57;12.50;99.90
27544;DHT22;17996;51.056;3.656;2022-09-17T17:31:23;12.30;99.90
27544;DHT22;17996;51.056;3.656;2022-09-17T17:33:49;12.40;99.90
27544;DHT22;17996;51.056;3.656;2022-09-17T17:36:15;12.30;99.90
27544;DHT22;17996;51.056;3.656;2022-09-17T17:38:41;12.40;99.90
27544;DHT22;17996;51.056;3.656;2022-09-17T17:41:12;12.30;99.90
27544;DHT22;17996;51.056;3.656;2022-09-17T17:43:38;12.40;99.90
27544;DHT22;17996;51.056;3.656;2022-09-17T17:46:09;12.30;99.90
27544;DHT22;17996;51.056;3.656;2022-09-17T17:48:35;12.40;99.90
27544;DHT22;17996;51.056;3.656;2022-09-17T17:51:03;12.40;99.90
27544;DHT22;17996;51.056;3.656;2022-09-17T17:53:29;12.30;99.90
27544;DHT22;17996;51.056;3.656;2022-09-17T17:55:57;12.30;99.90
27544;DHT22;17996;51.056;3.656;2022-09-17T17:58:24;12.30;99.90
27544;DHT22;17996;51.056;3.656;2022-09-17T18:00:49;12.40;99.90
27544;DHT22;17996;51.056;3.656;2022-09-17T18:03:15;12.30;99.90
27544;DHT22;17996;51.056;3.656;2022-09-17T18:05:40;12.30;99.90
27544;DHT22;17996;51.056;3.656;2022-09-17T18:08:06;12.40;99.90
27544;DHT22;17996;51.056;3.656;2022-09-17T18:10:32;12.40;99.90
27544;DHT22;17996;51.056;3.656;2022-09-17T18:12:57;12.40;99.90
27544;DHT22;17996;51.056;3.656;2022-09-17T18:15:23;12.60;99.90
27544;DHT22;17996;51.056;3.656;2022-09-17T18:17:48;12.60;99.90
27544;DHT22;17996;51.056;3.656;2022-09-17T18:20:16;12.50;99.90
27544;DHT22;17996;51.056;3.656;2022-09-17T18:22:43;12.50;99.90
27544;DHT22;17996;51.056;3.656;2022-09-17T18:25:08;12.50;99.90
27544;DHT22;17996;51.056;3.656;2022-09-17T18:27:34;12.50;99.90
27544;DHT22;17996;51.056;3.656;2022-09-17T18:30:00;12.50;99.90
27544;DHT22;17996;51.056;3.656;2022-09-17T18:32:25;12.50;99.90
27544;DHT22;17996;51.056;3.656;2022-09-17T18:34:51;12.50;99.90
27544;DHT22;17996;51.056;3.656;2022-09-17T18:37:17;12.50;99.90
27544;DHT22;17996;51.056;3.656;2022-09-17T18:39:42;12.50;99.90
27544;DHT22;17996;51.056;3.656;2022-09-17T18:42:08;12.50;99.90
27544;DHT22;17996;51.056;3.656;2022-09-17T18:44:34;12.60;99.90